createdAt,value
2018-04-07T00:00:25.353Z,46.35
2018-04-07T00:01:25.331Z,46.15
2018-04-07T00:02:25.322Z,45.68
2018-04-07T00:03:25.290Z,45.30
2018-04-07T00:04:25.270Z,45.30
2018-04-07T00:05:25.249Z,45.68
2018-04-07T00:06:25.227Z,45.78
2018-04-07T00:07:25.206Z,45.87
2018-04-07T00:08:25.184Z,46.35
2018-04-07T00:09:25.178Z,45.97
2018-04-07T00:10:25.145Z,46.25
2018-04-07T00:11:25.132Z,45.87
2018-04-07T00:12:25.104Z,45.40
2018-04-07T00:13:25.082Z,45.49
2018-04-07T00:14:25.106Z,45.97
2018-04-07T00:15:25.038Z,46.06
2018-04-07T00:16:25.018Z,46.25
2018-04-07T00:17:24.995Z,45.78
2018-04-07T00:18:24.975Z,45.40
2018-04-07T00:19:24.963Z,45.87
2018-04-07T00:20:24.934Z,45.59
2018-04-07T00:21:24.913Z,45.30
2018-04-07T00:22:24.891Z,44.82
2018-04-07T00:23:24.873Z,45.01
2018-04-07T00:24:24.849Z,45.78
2018-04-07T00:25:24.828Z,45.68
2018-04-07T00:26:24.808Z,45.78
2018-04-07T00:27:24.787Z,44.82
2018-04-07T00:28:24.767Z,44.82
2018-04-07T00:29:24.744Z,44.82
2018-04-07T00:30:24.725Z,44.92
2018-04-07T00:31:24.705Z,44.82
2018-04-07T00:32:24.683Z,45.01
2018-04-07T00:33:24.658Z,44.82
2018-04-07T00:34:24.657Z,45.01
2018-04-07T00:35:24.615Z,45.01
2018-04-07T00:36:24.596Z,45.30
2018-04-07T00:37:24.576Z,45.68
2018-04-07T00:38:24.552Z,46.15
2018-04-07T00:39:24.530Z,45.78
2018-04-07T00:40:24.516Z,44.92
2018-04-07T00:41:24.488Z,45.21
2018-04-07T00:42:24.466Z,45.87
2018-04-07T00:43:24.446Z,45.97
2018-04-07T00:44:24.425Z,46.25
2018-04-07T00:45:24.415Z,45.97
2018-04-07T00:46:24.382Z,45.87
2018-04-07T00:47:24.362Z,46.14
2018-04-07T00:48:24.339Z,46.51
2018-04-07T00:49:24.318Z,46.70
2018-04-07T00:50:24.298Z,46.89
2018-04-07T00:51:24.278Z,46.42
2018-04-07T00:52:24.255Z,46.70
2018-04-07T00:53:24.233Z,46.89
2018-04-07T00:54:24.212Z,48.32
2018-04-07T00:55:24.193Z,47.66
2018-04-07T00:56:24.169Z,47.85
2018-04-07T00:57:24.147Z,47.94
2018-04-07T00:58:24.127Z,48.23
2018-04-07T00:59:24.106Z,47.94
2018-04-07T01:00:24.083Z,48.13
2018-04-07T01:01:24.062Z,48.99
2018-04-07T01:02:24.040Z,49.08
2018-04-07T01:03:24.020Z,48.90
2018-04-07T01:04:24.003Z,48.51
2018-04-07T01:05:23.974Z,48.58
2018-04-07T01:06:23.955Z,48.90
2018-04-07T01:07:23.934Z,48.77
2018-04-07T01:08:23.917Z,48.96
2018-04-07T01:09:23.889Z,49.06
2018-04-07T01:10:23.870Z,49.15
2018-04-07T01:11:23.846Z,49.91
2018-04-07T01:12:23.828Z,49.63
2018-04-07T01:13:23.804Z,49.63
2018-04-07T01:14:23.786Z,49.44
2018-04-07T01:15:23.773Z,49.91
2018-04-07T01:16:23.742Z,49.35
2018-04-07T01:17:23.719Z,49.73
2018-04-07T01:18:23.696Z,50.10
2018-04-07T01:19:23.678Z,49.63
2018-04-07T01:20:23.654Z,49.91
2018-04-07T01:21:23.629Z,49.91
2018-04-07T01:22:23.609Z,49.54
2018-04-07T01:23:23.587Z,49.91
2018-04-07T01:24:23.567Z,49.73
2018-04-07T01:25:23.545Z,49.25
2018-04-07T01:26:23.524Z,49.63
2018-04-07T01:27:23.503Z,50.01
2018-04-07T01:28:23.482Z,50.68
2018-04-07T01:29:23.458Z,50.29
2018-04-07T01:30:23.441Z,50.87
2018-04-07T01:31:23.427Z,50.77
2018-04-07T01:32:23.398Z,50.48
2018-04-07T01:33:23.371Z,50.01
2018-04-07T01:34:23.352Z,49.91
2018-04-07T01:35:23.331Z,50.39
2018-04-07T01:36:23.304Z,50.29
2018-04-07T01:37:23.282Z,50.01
2018-04-07T01:38:23.261Z,50.58
2018-04-07T01:39:23.239Z,50.48
2018-04-07T01:40:23.219Z,50.77
2018-04-07T01:41:23.205Z,50.68
2018-04-07T01:42:23.174Z,50.39
2018-04-07T01:43:23.163Z,50.10
2018-04-07T01:44:23.130Z,50.29
2018-04-07T01:45:23.109Z,50.87
2018-04-07T01:46:23.088Z,51.06
2018-04-07T01:47:23.070Z,51.31
2018-04-07T01:48:23.047Z,51.25
2018-04-07T01:49:23.020Z,50.87
2018-04-07T01:50:22.999Z,51.06
2018-04-07T01:51:22.977Z,50.39
2018-04-07T01:52:22.955Z,50.68
2018-04-07T01:53:22.937Z,50.96
2018-04-07T01:54:22.912Z,50.48
2018-04-07T01:55:22.892Z,49.82
2018-04-07T01:56:22.868Z,49.54
2018-04-07T01:57:22.845Z,49.54
2018-04-07T01:58:22.824Z,49.44
2018-04-07T01:59:22.804Z,49.54
2018-04-07T02:00:22.781Z,49.91
2018-04-07T02:01:22.759Z,49.91
2018-04-07T02:02:22.736Z,50.10
2018-04-07T02:03:22.713Z,50.29
2018-04-07T02:04:22.694Z,50.10
2018-04-07T02:05:22.669Z,49.91
2018-04-07T02:06:22.650Z,50.48
2018-04-07T02:07:22.626Z,51.06
2018-04-07T02:08:22.626Z,50.87
2018-04-07T02:09:22.582Z,51.15
2018-04-07T02:10:22.561Z,50.58
2018-04-07T02:11:22.539Z,50.96
2018-04-07T02:12:22.517Z,51.06
2018-04-07T02:13:22.494Z,51.72
2018-04-07T02:14:22.473Z,51.62
2018-04-07T02:15:22.452Z,51.43
2018-04-07T02:16:22.431Z,51.51
2018-04-07T02:17:22.406Z,51.70
2018-04-07T02:18:22.390Z,51.31
2018-04-07T02:19:22.362Z,51.41
2018-04-07T02:20:22.344Z,51.79
2018-04-07T02:21:22.319Z,51.22
2018-04-07T02:22:22.297Z,51.03
2018-04-07T02:23:22.274Z,51.22
2018-04-07T02:24:22.252Z,51.06
2018-04-07T02:25:22.231Z,51.60
2018-04-07T02:26:22.213Z,51.22
2018-04-07T02:27:22.188Z,51.31
2018-04-07T02:28:22.175Z,51.31
2018-04-07T02:29:22.141Z,50.65
2018-04-07T02:30:22.119Z,51.51
2018-04-07T02:31:22.097Z,50.93
2018-04-07T02:32:22.084Z,51.22
2018-04-07T02:33:22.064Z,51.12
2018-04-07T02:34:22.035Z,51.15
2018-04-07T02:35:22.009Z,51.51
2018-04-07T02:36:21.986Z,51.15
2018-04-07T02:37:21.964Z,50.74
2018-04-07T02:38:21.942Z,51.06
2018-04-07T02:39:21.920Z,51.12
2018-04-07T02:40:21.900Z,51.12
2018-04-07T02:41:21.878Z,50.56
2018-04-07T02:42:21.859Z,51.12
2018-04-07T02:43:21.832Z,51.25
2018-04-07T02:44:21.810Z,51.12
2018-04-07T02:45:21.787Z,51.15
2018-04-07T02:46:21.765Z,51.12
2018-04-07T02:47:21.761Z,51.25
2018-04-07T02:48:21.724Z,51.25
2018-04-07T02:49:21.699Z,51.34
2018-04-07T02:50:21.716Z,51.43
2018-04-07T02:51:21.655Z,50.93
2018-04-07T02:52:21.637Z,51.12
2018-04-07T02:53:21.613Z,51.06
2018-04-07T02:54:21.589Z,50.77
2018-04-07T02:55:21.569Z,51.22
2018-04-07T02:56:21.544Z,51.70
2018-04-07T02:57:21.523Z,51.60
2018-04-07T02:58:21.499Z,50.74
2018-04-07T02:59:21.478Z,51.22
2018-04-07T03:00:21.456Z,51.31
2018-04-07T03:01:21.433Z,51.70
2018-04-07T03:02:21.410Z,51.03
2018-04-07T03:03:21.396Z,51.31
2018-04-07T03:04:21.370Z,51.12
2018-04-07T03:05:21.345Z,51.31
2018-04-07T03:06:21.322Z,51.43
2018-04-07T03:07:21.300Z,51.51
2018-04-07T03:08:21.277Z,51.12
2018-04-07T03:09:21.256Z,51.41
2018-04-07T03:10:21.233Z,51.12
2018-04-07T03:11:21.218Z,51.51
2018-04-07T03:12:21.202Z,51.89
2018-04-07T03:13:21.192Z,52.17
2018-04-07T03:14:21.163Z,51.70
2018-04-07T03:15:21.140Z,51.31
2018-04-07T03:16:21.120Z,51.22
2018-04-07T03:17:21.122Z,51.15
2018-04-07T03:18:21.060Z,51.53
2018-04-07T03:19:21.033Z,51.22
2018-04-07T03:20:21.010Z,51.25
2018-04-07T03:21:20.987Z,50.93
2018-04-07T03:22:20.971Z,51.31
2018-04-07T03:23:20.943Z,51.12
2018-04-07T03:24:20.922Z,50.87
2018-04-07T03:25:20.899Z,51.22
2018-04-07T03:26:20.878Z,51.06
2018-04-07T03:27:20.853Z,51.12
2018-04-07T03:28:20.832Z,51.34
2018-04-07T03:29:20.809Z,51.12
2018-04-07T03:30:20.789Z,51.34
2018-04-07T03:31:20.767Z,51.12
2018-04-07T03:32:20.744Z,51.79
2018-04-07T03:33:20.721Z,51.31
2018-04-07T03:34:20.699Z,51.22
2018-04-07T03:35:20.677Z,51.70
2018-04-07T03:36:20.680Z,51.51
2018-04-07T03:37:20.632Z,51.51
2018-04-07T03:38:20.609Z,52.36
2018-04-07T03:39:20.587Z,51.70
2018-04-07T03:40:20.566Z,51.60
2018-04-07T03:41:20.543Z,51.60
2018-04-07T03:42:20.522Z,51.51
2018-04-07T03:43:20.498Z,51.22
2018-04-07T03:44:20.478Z,51.31
2018-04-07T03:45:20.453Z,51.60
2018-04-07T03:46:20.432Z,51.34
2018-04-07T03:47:20.411Z,51.12
2018-04-07T03:48:20.386Z,51.31
2018-04-07T03:49:20.363Z,51.51
2018-04-07T03:50:20.342Z,51.41
2018-04-07T03:51:20.327Z,51.41
2018-04-07T03:52:20.297Z,51.51
2018-04-07T03:53:20.277Z,51.41
2018-04-07T03:54:20.257Z,51.22
2018-04-07T03:55:20.231Z,51.41
2018-04-07T03:56:20.209Z,51.70
2018-04-07T03:57:20.187Z,51.98
2018-04-07T03:58:20.163Z,51.60
2018-04-07T03:59:20.139Z,51.51
2018-04-07T04:00:20.118Z,52.55
2018-04-07T04:01:20.097Z,52.55
2018-04-07T04:02:20.075Z,52.36
2018-04-07T04:03:20.059Z,52.36
2018-04-07T04:04:20.031Z,52.93
2018-04-07T04:05:20.006Z,52.08
2018-04-07T04:06:19.985Z,52.64
2018-04-07T04:07:19.963Z,52.74
2018-04-07T04:08:19.942Z,52.74
2018-04-07T04:09:19.916Z,52.64
2018-04-07T04:10:19.894Z,52.84
2018-04-07T04:11:19.873Z,52.74
2018-04-07T04:12:19.850Z,52.55
2018-04-07T04:13:19.828Z,53.03
2018-04-07T04:14:19.804Z,53.22
2018-04-07T04:15:19.784Z,53.69
2018-04-07T04:16:19.761Z,53.50
2018-04-07T04:17:19.737Z,53.69
2018-04-07T04:18:19.727Z,53.88
2018-04-07T04:19:19.693Z,54.90
2018-04-07T04:20:19.669Z,54.83
2018-04-07T04:21:19.647Z,54.90
2018-04-07T04:22:19.645Z,54.71
2018-04-07T04:23:19.618Z,54.99
2018-04-07T04:24:19.581Z,55.09
2018-04-07T04:25:19.559Z,54.99
2018-04-07T04:26:19.535Z,54.90
2018-04-07T04:27:19.511Z,54.61
2018-04-07T04:28:19.490Z,54.71
2018-04-07T04:29:19.468Z,54.71
2018-04-07T04:30:19.444Z,54.90
2018-04-07T04:31:19.425Z,54.61
2018-04-07T04:32:19.399Z,54.90
2018-04-07T04:33:19.376Z,54.99
2018-04-07T04:34:19.354Z,54.99
2018-04-07T04:35:19.332Z,54.61
2018-04-07T04:36:19.309Z,54.80
2018-04-07T04:37:19.284Z,55.47
2018-04-07T04:38:19.263Z,55.28
2018-04-07T04:39:19.242Z,54.90
2018-04-07T04:40:19.221Z,54.99
2018-04-07T04:41:19.201Z,55.18
2018-04-07T04:42:19.174Z,55.76
2018-04-07T04:43:19.151Z,55.76
2018-04-07T04:44:19.132Z,55.18
2018-04-07T04:45:19.104Z,55.57
2018-04-07T04:46:19.082Z,55.09
2018-04-07T04:47:19.059Z,54.80
2018-04-07T04:48:19.039Z,54.80
2018-04-07T04:49:19.023Z,54.52
2018-04-07T04:50:18.993Z,54.80
2018-04-07T04:51:18.970Z,54.99
2018-04-07T04:52:18.947Z,55.47
2018-04-07T04:53:18.923Z,55.37
2018-04-07T04:54:18.902Z,54.74
2018-04-07T04:55:18.880Z,55.18
2018-04-07T04:56:18.856Z,55.09
2018-04-07T04:57:18.832Z,55.50
2018-04-07T04:58:18.811Z,55.66
2018-04-07T04:59:18.788Z,55.40
2018-04-07T05:00:18.766Z,55.59
2018-04-07T05:01:18.753Z,55.50
2018-04-07T05:02:18.722Z,55.21
2018-04-07T05:03:18.701Z,55.94
2018-04-07T05:04:18.679Z,55.66
2018-04-07T05:05:18.662Z,55.85
2018-04-07T05:06:18.630Z,56.07
2018-04-07T05:07:18.608Z,55.59
2018-04-07T05:08:18.583Z,55.50
2018-04-07T05:09:18.562Z,56.07
2018-04-07T05:10:18.545Z,55.78
2018-04-07T05:11:18.517Z,55.97
2018-04-07T05:12:18.495Z,55.59
2018-04-07T05:13:18.471Z,55.59
2018-04-07T05:14:18.450Z,55.59
2018-04-07T05:15:18.426Z,55.78
2018-04-07T05:16:18.415Z,55.88
2018-04-07T05:17:18.382Z,55.78
2018-04-07T05:18:18.358Z,56.26
2018-04-07T05:19:18.336Z,56.45
2018-04-07T05:20:18.356Z,56.26
2018-04-07T05:21:18.289Z,55.88
2018-04-07T05:22:18.331Z,56.26
2018-04-07T05:23:18.245Z,56.63
2018-04-07T05:24:18.291Z,56.63
2018-04-07T05:25:18.199Z,56.26
2018-04-07T05:26:18.177Z,57.02
2018-04-07T05:27:18.156Z,57.02
2018-04-07T05:28:18.157Z,56.26
2018-04-07T05:29:18.112Z,56.26
2018-04-07T05:30:18.095Z,56.35
2018-04-07T05:31:18.094Z,56.63
2018-04-07T05:32:18.045Z,56.54
2018-04-07T05:33:18.038Z,56.45
2018-04-07T05:34:18.014Z,57.02
2018-04-07T05:35:18.002Z,57.02
2018-04-07T05:36:18.003Z,56.73
2018-04-07T05:37:17.940Z,56.16
2018-04-07T05:38:17.953Z,56.63
2018-04-07T05:39:17.905Z,56.63
2018-04-07T05:40:18.610Z,56.83
2018-04-07T05:41:17.860Z,56.63
2018-04-07T05:42:17.848Z,56.35
2018-04-07T05:43:17.814Z,56.16
2018-04-07T05:44:17.800Z,56.54
2018-04-07T05:45:17.804Z,57.02
2018-04-07T05:46:17.741Z,56.63
2018-04-07T05:47:17.713Z,56.83
2018-04-07T05:48:17.706Z,57.40
2018-04-07T05:49:17.676Z,57.50
2018-04-07T05:50:17.644Z,57.50
2018-04-07T05:51:17.702Z,57.40
2018-04-07T05:52:17.614Z,57.40
2018-04-07T05:53:17.659Z,56.63
2018-04-07T05:54:20.044Z,57.02
2018-04-07T05:55:17.573Z,56.16
2018-04-07T05:56:17.506Z,56.38
2018-04-07T05:57:17.504Z,57.40
2018-04-07T05:58:17.475Z,57.14
2018-04-07T05:59:17.461Z,57.14
2018-04-07T06:00:17.467Z,56.48
2018-04-07T06:01:17.391Z,56.95
2018-04-07T06:02:17.424Z,56.76
2018-04-07T06:03:17.405Z,56.57
2018-04-07T06:04:17.330Z,57.24
2018-04-07T06:05:17.335Z,57.52
2018-04-07T06:06:17.300Z,57.04
2018-04-07T06:07:17.258Z,56.67
2018-04-07T06:08:17.230Z,56.10
2018-04-07T06:09:17.210Z,56.48
2018-04-07T06:10:17.186Z,56.48
2018-04-07T06:11:17.168Z,56.48
2018-04-07T06:12:17.148Z,55.62
2018-04-07T06:13:17.164Z,55.15
2018-04-07T06:14:17.166Z,55.81
2018-04-07T06:15:17.075Z,55.08
2018-04-07T06:16:17.054Z,54.32
2018-04-07T06:17:18.602Z,54.03
2018-04-07T06:18:17.040Z,54.32
2018-04-07T06:19:17.037Z,54.22
2018-04-07T06:20:16.998Z,53.65
2018-04-07T06:21:16.990Z,53.65
2018-04-07T06:22:16.947Z,52.51
2018-04-07T06:23:16.910Z,53.46
2018-04-07T06:24:16.892Z,53.67
2018-04-07T06:25:16.896Z,53.75
2018-04-07T06:26:18.792Z,53.77
2018-04-07T06:27:16.862Z,53.67
2018-04-07T06:28:16.800Z,53.01
2018-04-07T06:29:17.836Z,53.39
2018-04-07T06:30:16.786Z,52.82
2018-04-07T06:31:16.797Z,53.77
2018-04-07T06:32:16.721Z,52.72
2018-04-07T06:33:16.684Z,52.15
2018-04-07T06:34:16.679Z,51.39
2018-04-07T06:35:16.702Z,52.25
2018-04-07T06:36:16.630Z,52.92
2018-04-07T06:37:16.599Z,52.63
2018-04-07T06:38:16.573Z,51.58
2018-04-07T06:39:16.554Z,51.49
2018-04-07T06:40:16.527Z,52.34
2018-04-07T06:41:16.526Z,52.72
2018-04-07T06:42:16.484Z,53.13
2018-04-07T06:43:16.521Z,53.80
2018-04-07T06:44:16.441Z,53.23
2018-04-07T06:45:16.453Z,50.85
2018-04-07T06:46:16.398Z,51.23
2018-04-07T06:47:17.116Z,51.80
2018-04-07T06:48:16.367Z,52.09
2018-04-07T06:49:16.347Z,52.28
2018-04-07T06:50:16.337Z,52.56
2018-04-07T06:51:16.313Z,52.09
2018-04-07T06:52:16.290Z,52.09
2018-04-07T06:53:16.291Z,52.56
2018-04-07T06:54:16.248Z,51.80
2018-04-07T06:55:16.216Z,51.61
2018-04-07T06:56:16.210Z,51.35
2018-04-07T06:57:16.170Z,51.25
2018-04-07T06:58:16.403Z,51.73
2018-04-07T06:59:16.138Z,51.35
2018-04-07T07:00:16.155Z,51.35
2018-04-07T07:01:16.129Z,51.25
2018-04-07T07:02:16.080Z,51.45
2018-04-07T07:03:16.061Z,51.35
2018-04-07T07:04:16.039Z,50.87
2018-04-07T07:05:15.993Z,50.11
2018-04-07T07:06:15.995Z,49.92
2018-04-07T07:07:15.976Z,50.68
2018-04-07T07:08:15.960Z,50.01
2018-04-07T07:09:15.916Z,49.26
2018-04-07T07:10:15.907Z,49.16
2018-04-07T07:11:15.916Z,50.01
2018-04-07T07:12:15.864Z,49.44
2018-04-07T07:13:16.621Z,50.68
2018-04-07T07:14:15.833Z,50.71
2018-04-07T07:15:15.841Z,51.37
2018-04-07T07:16:15.800Z,49.95
2018-04-07T07:17:15.755Z,50.23
2018-04-07T07:18:15.767Z,51.37
2018-04-07T07:19:15.716Z,51.66
2018-04-07T07:20:15.987Z,51.37
2018-04-07T07:21:15.720Z,51.37
2018-04-07T07:22:15.646Z,51.28
2018-04-07T07:23:15.647Z,50.42
2018-04-07T07:24:15.659Z,51.28
2018-04-07T07:25:15.597Z,51.47
2018-04-07T07:26:15.556Z,51.28
2018-04-07T07:27:15.539Z,51.56
2018-04-07T07:28:15.520Z,50.42
2018-04-07T07:29:15.499Z,49.76
2018-04-07T07:30:15.482Z,49.21
2018-04-07T07:31:15.466Z,49.97
2018-04-07T07:32:15.515Z,49.97
2018-04-07T07:33:15.475Z,49.87
2018-04-07T07:34:15.490Z,51.02
2018-04-07T07:35:15.394Z,49.02
2018-04-07T07:36:15.366Z,49.21
2018-04-07T07:37:15.330Z,49.21
2018-04-07T07:38:15.359Z,48.73
2018-04-07T07:39:15.328Z,50.16
2018-04-07T07:40:15.308Z,49.78
2018-04-07T07:41:15.594Z,48.07
2018-04-07T07:42:15.260Z,47.97
2018-04-07T07:43:15.266Z,47.78
2018-04-07T07:44:15.199Z,47.02
2018-04-07T07:45:15.172Z,46.84
2018-04-07T07:46:15.163Z,47.32
2018-04-07T07:47:15.130Z,46.75
2018-04-07T07:48:15.109Z,46.27
2018-04-07T07:49:15.089Z,45.99
2018-04-07T07:50:15.088Z,45.32
2018-04-07T07:51:15.089Z,45.89
2018-04-07T07:52:15.047Z,45.79
2018-04-07T07:53:15.033Z,45.61
2018-04-07T07:54:15.023Z,45.42
2018-04-07T07:55:15.011Z,45.89
2018-04-07T07:56:14.953Z,46.01
2018-04-07T07:57:14.933Z,46.11
2018-04-07T07:58:14.938Z,46.20
2018-04-07T07:59:14.900Z,46.01
2018-04-07T08:00:14.880Z,46.20
2018-04-07T08:01:15.189Z,46.30
2018-04-07T08:02:14.855Z,46.39
2018-04-07T08:03:14.828Z,47.16
2018-04-07T08:04:14.820Z,47.82
2018-04-07T08:05:14.799Z,47.08
2018-04-07T08:06:14.773Z,46.89
2018-04-07T08:07:14.789Z,46.22
2018-04-07T08:08:14.761Z,46.42
2018-04-07T08:09:14.706Z,46.42
2018-04-07T08:10:14.686Z,46.89
2018-04-07T08:11:14.684Z,46.42
2018-04-07T08:12:14.641Z,46.61
2018-04-07T08:13:14.648Z,46.80
2018-04-07T08:14:14.605Z,47.18
2018-04-07T08:15:14.585Z,47.18
2018-04-07T08:16:14.566Z,45.94
2018-04-07T08:17:14.536Z,44.89
2018-04-07T08:18:14.521Z,44.89
2018-04-07T08:19:14.571Z,44.89
2018-04-07T08:20:14.479Z,44.34
2018-04-07T08:21:14.465Z,44.05
2018-04-07T08:22:14.446Z,43.38
2018-04-07T08:23:14.429Z,44.34
2018-04-07T08:24:14.402Z,44.15
2018-04-07T08:25:14.383Z,43.86
2018-04-07T08:26:14.411Z,44.05
2018-04-07T08:27:14.345Z,44.15
2018-04-07T08:28:14.324Z,45.01
2018-04-07T08:29:14.306Z,45.77
2018-04-07T08:30:14.290Z,44.62
2018-04-07T08:31:14.269Z,45.67
2018-04-07T08:32:14.297Z,45.12
2018-04-07T08:33:14.235Z,44.74
2018-04-07T08:34:14.212Z,44.36
2018-04-07T08:35:14.203Z,44.17
2018-04-07T08:36:14.181Z,45.12
2018-04-07T08:37:14.895Z,44.93
2018-04-07T08:38:14.138Z,44.93
2018-04-07T08:39:14.117Z,44.55
2018-04-07T08:40:14.100Z,43.79
2018-04-07T08:41:14.081Z,43.88
2018-04-07T08:42:14.062Z,43.79
2018-04-07T08:43:14.044Z,43.79
2018-04-07T08:44:14.024Z,44.26
2018-04-07T08:45:14.005Z,44.26
2018-04-07T08:46:13.986Z,43.30
2018-04-07T08:47:13.970Z,42.93
2018-04-07T08:48:13.950Z,43.50
2018-04-07T08:49:13.935Z,43.50
2018-04-07T08:50:13.941Z,44.00
2018-04-07T08:51:13.898Z,44.48
2018-04-07T08:52:13.877Z,43.71
2018-04-07T08:53:13.864Z,43.80
2018-04-07T08:54:13.860Z,43.90
2018-04-07T08:55:13.824Z,44.29
2018-04-07T08:56:13.805Z,44.29
2018-04-07T08:57:13.797Z,43.80
2018-04-07T08:58:13.766Z,43.92
2018-04-07T08:59:13.748Z,44.02
2018-04-07T09:00:13.729Z,44.59
2018-04-07T09:01:13.713Z,44.59
2018-04-07T09:02:13.697Z,43.73
2018-04-07T09:03:13.676Z,43.35
2018-04-07T09:04:13.659Z,43.26
2018-04-07T09:05:13.654Z,42.30
2018-04-07T09:06:13.623Z,42.20
2018-04-07T09:07:13.603Z,41.74
2018-04-07T09:08:13.586Z,42.22
2018-04-07T09:09:13.570Z,42.41
2018-04-07T09:10:13.549Z,42.13
2018-04-07T09:11:13.536Z,41.55
2018-04-07T09:12:13.513Z,42.13
2018-04-07T09:13:13.495Z,41.55
2018-04-07T09:14:13.477Z,40.90
2018-04-07T09:15:13.464Z,40.33
2018-04-07T09:16:13.455Z,39.85
2018-04-07T09:17:13.425Z,40.81
2018-04-07T09:18:13.408Z,40.71
2018-04-07T09:19:13.390Z,41.19
2018-04-07T09:20:13.373Z,41.00
2018-04-07T09:21:13.357Z,40.23
2018-04-07T09:22:13.337Z,40.14
2018-04-07T09:23:13.322Z,41.28
2018-04-07T09:24:13.303Z,40.73
2018-04-07T09:25:13.285Z,40.90
2018-04-07T09:26:13.269Z,40.42
2018-04-07T09:27:13.252Z,39.48
2018-04-07T09:28:13.235Z,39.97
2018-04-07T09:29:13.215Z,39.20
2018-04-07T09:30:13.198Z,39.29
2018-04-07T09:31:13.182Z,39.20
2018-04-07T09:32:13.165Z,39.87
2018-04-07T09:33:13.148Z,39.68
2018-04-07T09:34:13.132Z,39.29
2018-04-07T09:35:13.115Z,39.97
2018-04-07T09:36:13.096Z,39.48
2018-04-07T09:37:13.086Z,39.48
2018-04-07T09:38:13.063Z,38.62
2018-04-07T09:39:13.056Z,38.64
2018-04-07T09:40:13.034Z,39.12
2018-04-07T09:41:13.034Z,38.74
2018-04-07T09:42:13.043Z,38.54
2018-04-07T09:43:12.978Z,38.93
2018-04-07T09:44:12.959Z,38.85
2018-04-07T09:45:12.944Z,38.95
2018-04-07T09:46:12.928Z,38.85
2018-04-07T09:47:12.911Z,38.47
2018-04-07T09:48:12.893Z,38.18
2018-04-07T09:49:12.877Z,37.89
2018-04-07T09:50:12.860Z,38.37
2018-04-07T09:51:12.845Z,37.03
2018-04-07T09:52:12.827Z,36.16
2018-04-07T09:53:12.811Z,36.09
2018-04-07T09:54:12.793Z,36.86
2018-04-07T09:55:12.781Z,36.28
2018-04-07T09:56:12.762Z,36.28
2018-04-07T09:57:12.746Z,36.28
2018-04-07T09:58:12.729Z,36.11
2018-04-07T09:59:12.712Z,35.34
2018-04-07T10:00:12.697Z,35.82
2018-04-07T10:01:12.681Z,36.30
2018-04-07T10:02:12.663Z,36.20
2018-04-07T10:03:12.649Z,35.72
2018-04-07T10:04:12.635Z,35.43
2018-04-07T10:05:12.642Z,35.36
2018-04-07T10:06:12.602Z,35.06
2018-04-07T10:07:12.590Z,34.68
2018-04-07T10:08:12.570Z,34.30
2018-04-07T10:09:12.557Z,34.59
2018-04-07T10:10:12.538Z,35.16
2018-04-07T10:11:12.523Z,34.99
2018-04-07T10:12:12.513Z,34.99
2018-04-07T10:13:12.491Z,34.03
2018-04-07T10:14:12.480Z,35.28
2018-04-07T10:15:12.464Z,35.08
2018-04-07T10:16:12.448Z,34.31
2018-04-07T10:17:12.432Z,33.18
2018-04-07T10:18:12.415Z,33.56
2018-04-07T10:19:12.407Z,33.56
2018-04-07T10:20:12.386Z,32.90
2018-04-07T10:21:12.372Z,32.81
2018-04-07T10:22:12.416Z,33.00
2018-04-07T10:23:12.344Z,32.23
2018-04-07T10:24:12.332Z,34.17
2018-04-07T10:25:12.317Z,32.73
2018-04-07T10:26:12.305Z,32.26
2018-04-07T10:27:12.292Z,31.88
2018-04-07T10:28:12.308Z,30.93
2018-04-07T10:29:12.274Z,29.79
2018-04-07T10:30:12.260Z,30.11
2018-04-07T10:31:12.249Z,27.60
2018-04-07T10:32:12.259Z,26.86
2018-04-07T10:33:12.250Z,28.14
2018-04-07T10:34:12.217Z,27.29
2018-04-07T10:35:12.210Z,24.50
2018-04-07T10:36:12.219Z,23.26
2018-04-07T10:37:12.193Z,23.38
2018-04-07T10:38:12.189Z,21.55
2018-04-07T10:39:12.180Z,20.42
2018-04-07T10:40:12.179Z,18.78
2018-04-07T10:41:12.172Z,18.60
2018-04-07T10:42:12.165Z,17.54
2018-04-07T10:43:12.172Z,17.45
2018-04-07T10:44:12.156Z,17.35
2018-04-07T10:45:12.148Z,17.45
2018-04-07T10:46:12.187Z,16.49
2018-04-07T10:47:12.144Z,15.22
2018-04-07T10:48:12.167Z,14.93
2018-04-07T10:49:12.134Z,15.73
2018-04-07T10:50:12.133Z,14.86
2018-04-07T10:51:12.130Z,15.16
2018-04-07T10:52:12.131Z,15.66
2018-04-07T10:53:12.132Z,13.49
2018-04-07T10:54:12.125Z,13.78
2018-04-07T10:55:12.124Z,13.98
2018-04-07T10:56:12.121Z,14.84
2018-04-07T10:57:12.120Z,13.98
2018-04-07T10:58:12.116Z,14.86
2018-04-07T10:59:12.114Z,15.25
2018-04-07T11:00:12.112Z,15.05
2018-04-07T11:01:12.110Z,15.06
2018-04-07T11:02:12.111Z,15.96
2018-04-07T11:03:12.119Z,14.79
2018-04-07T11:04:12.113Z,13.71
2018-04-07T11:05:12.103Z,13.81
2018-04-07T11:06:12.112Z,12.93
2018-04-07T11:07:12.103Z,13.52
2018-04-07T11:08:12.103Z,14.20
2018-04-07T11:09:12.097Z,12.73
2018-04-07T11:10:12.097Z,14.20
2018-04-07T11:11:12.096Z,13.22
2018-04-07T11:12:12.096Z,13.70
2018-04-07T11:13:12.095Z,14.98
2018-04-07T11:14:12.093Z,14.79
2018-04-07T11:15:12.098Z,13.82
2018-04-07T11:16:12.092Z,12.26
2018-04-07T11:17:12.099Z,12.07
2018-04-07T11:18:12.114Z,12.38
2018-04-07T11:19:12.095Z,11.00
2018-04-07T11:20:12.094Z,9.74
2018-04-07T11:21:12.093Z,8.94
2018-04-07T11:22:12.092Z,10.24
2018-04-07T11:23:12.096Z,9.65
2018-04-07T11:24:12.092Z,8.76
2018-04-07T11:25:12.094Z,8.84
2018-04-07T11:26:12.093Z,9.83
2018-04-07T11:27:12.094Z,9.04
2018-04-07T11:28:12.093Z,10.82
2018-04-07T11:29:12.096Z,9.34
2018-04-07T11:30:12.097Z,8.86
2018-04-07T11:31:12.099Z,8.86
2018-04-07T11:32:12.100Z,8.67
2018-04-07T11:33:12.102Z,7.87
2018-04-07T11:34:12.103Z,8.76
2018-04-07T11:35:12.106Z,11.43
2018-04-07T11:36:12.107Z,8.58
2018-04-07T11:37:12.108Z,8.19
2018-04-07T11:38:12.111Z,7.60
2018-04-07T11:39:12.113Z,7.39
2018-04-07T11:40:12.129Z,7.79
2018-04-07T11:41:12.118Z,7.10
2018-04-07T11:42:12.130Z,7.01
2018-04-07T11:43:12.123Z,6.91
2018-04-07T11:44:12.130Z,7.21
2018-04-07T11:45:12.147Z,7.12
2018-04-07T11:46:12.137Z,6.33
2018-04-07T11:47:12.139Z,5.93
2018-04-07T11:48:12.144Z,5.92
2018-04-07T11:49:12.149Z,6.91
2018-04-07T11:50:12.178Z,6.81
2018-04-07T11:51:12.160Z,7.02
2018-04-07T11:52:12.164Z,7.42
2018-04-07T11:53:12.207Z,6.83
2018-04-07T11:54:12.173Z,5.75
2018-04-07T11:55:12.177Z,4.86
2018-04-07T11:56:12.184Z,4.27
2018-04-07T11:57:12.191Z,4.26
2018-04-07T11:58:12.194Z,4.55
2018-04-07T11:59:12.198Z,5.33
2018-04-07T12:00:12.205Z,6.01
2018-04-07T12:01:12.212Z,6.69
2018-04-07T12:02:12.215Z,7.17
2018-04-07T12:03:12.220Z,8.04
2018-04-07T12:04:12.226Z,9.41
2018-04-07T12:05:12.236Z,9.12
2018-04-07T12:06:12.238Z,8.94
2018-04-07T12:07:12.239Z,7.96
2018-04-07T12:08:12.244Z,6.88
2018-04-07T12:09:12.248Z,6.90
2018-04-07T12:10:12.259Z,6.81
2018-04-07T12:11:12.257Z,6.81
2018-04-07T12:12:12.260Z,6.13
2018-04-07T12:13:12.263Z,5.73
2018-04-07T12:14:12.279Z,5.83
2018-04-07T12:15:12.272Z,5.83
2018-04-07T12:16:12.278Z,5.05
2018-04-07T12:17:12.282Z,4.46
2018-04-07T12:18:12.286Z,5.14
2018-04-07T12:19:12.290Z,5.84
2018-04-07T12:20:12.295Z,5.75
2018-04-07T12:21:12.300Z,4.44
2018-04-07T12:22:12.311Z,5.04
2018-04-07T12:23:12.310Z,4.75
2018-04-07T12:24:12.337Z,4.66
2018-04-07T12:25:12.316Z,4.75
2018-04-07T12:26:12.325Z,5.65
2018-04-07T12:27:12.331Z,4.35
2018-04-07T12:28:12.341Z,4.64
2018-04-07T12:29:12.341Z,5.35
2018-04-07T12:30:12.351Z,5.84
2018-04-07T12:31:12.351Z,5.05
2018-04-07T12:32:12.361Z,3.47
2018-04-07T12:33:12.360Z,3.57
2018-04-07T12:34:12.366Z,3.17
2018-04-07T12:35:12.371Z,3.47
2018-04-07T12:36:12.382Z,3.56
2018-04-07T12:37:12.391Z,5.16
2018-04-07T12:38:12.390Z,4.57
2018-04-07T12:39:12.392Z,3.67
2018-04-07T12:40:12.444Z,4.97
2018-04-07T12:41:12.404Z,4.38
2018-04-07T12:42:12.410Z,4.88
2018-04-07T12:43:12.414Z,3.08
2018-04-07T12:44:12.421Z,3.19
2018-04-07T12:45:12.425Z,2.69
2018-04-07T12:46:12.441Z,3.69
2018-04-07T12:47:12.444Z,3.59
2018-04-07T12:48:12.445Z,2.39
2018-04-07T12:49:12.450Z,2.29
2018-04-07T12:50:12.496Z,2.69
2018-04-07T12:51:12.485Z,1.70
2018-04-07T12:52:12.479Z,2.40
2018-04-07T12:53:12.478Z,2.09
2018-04-07T12:54:12.488Z,1.99
2018-04-07T12:55:12.493Z,2.39